sensor_id;sensor_type;location;lat;lon;timestamp;P1;durP1;ratioP1;P2;durP2;ratioP2
20283;SDS011;10301;50.832;4.080;2022-09-01T00:00:53;7.53;;;3.30;;
20283;SDS011;10301;50.832;4.080;2022-09-01T00:03:20;9.95;;;3.70;;
20283;SDS011;10301;50.832;4.080;2022-09-01T00:05:49;7.00;;;2.90;;
20283;SDS011;10301;50.832;4.080;2022-09-01T00:08:19;5.90;;;2.90;;
20283;SDS011;10301;50.832;4.080;2022-09-01T00:10:46;7.65;;;2.83;;
20283;SDS011;10301;50.832;4.080;2022-09-01T00:13:12;7.00;;;2.95;;
20283;SDS011;10301;50.832;4.080;2022-09-01T00:15:38;6.97;;;3.03;;
20283;SDS011;10301;50.832;4.080;2022-09-01T00:18:03;6.88;;;2.97;;
20283;SDS011;10301;50.832;4.080;2022-09-01T00:20:29;8.57;;;3.00;;
20283;SDS011;10301;50.832;4.080;2022-09-01T00:22:55;5.68;;;3.00;;
20283;SDS011;10301;50.832;4.080;2022-09-01T00:25:21;8.18;;;3.13;;
20283;SDS011;10301;50.832;4.080;2022-09-01T00:27:48;7.82;;;3.03;;
20283;SDS011;10301;50.832;4.080;2022-09-01T00:30:17;7.32;;;2.50;;
20283;SDS011;10301;50.832;4.080;2022-09-01T00:32:43;8.00;;;2.90;;
20283;SDS011;10301;50.832;4.080;2022-09-01T00:35:11;6.47;;;2.97;;
20283;SDS011;10301;50.832;4.080;2022-09-01T00:37:38;6.30;;;3.20;;
20283;SDS011;10301;50.832;4.080;2022-09-01T00:40:04;6.13;;;2.78;;
20283;SDS011;10301;50.832;4.080;2022-09-01T00:42:31;7.10;;;2.75;;
20283;SDS011;10301;50.832;4.080;2022-09-01T00:44:56;6.88;;;2.80;;
20283;SDS011;10301;50.832;4.080;2022-09-01T00:47:22;7.65;;;3.33;;
20283;SDS011;10301;50.832;4.080;2022-09-01T00:49:48;6.72;;;3.13;;
20283;SDS011;10301;50.832;4.080;2022-09-01T00:52:18;6.63;;;3.20;;
20283;SDS011;10301;50.832;4.080;2022-09-01T00:54:51;6.65;;;3.55;;
20283;SDS011;10301;50.832;4.080;2022-09-01T00:57:22;6.20;;;3.28;;
20283;SDS011;10301;50.832;4.080;2022-09-01T00:59:51;8.50;;;3.30;;
20283;SDS011;10301;50.832;4.080;2022-09-01T01:02:20;5.85;;;3.08;;
20283;SDS011;10301;50.832;4.080;2022-09-01T01:04:46;8.07;;;3.28;;
20283;SDS011;10301;50.832;4.080;2022-09-01T01:07:12;6.72;;;3.22;;
20283;SDS011;10301;50.832;4.080;2022-09-01T01:09:40;8.30;;;3.05;;
20283;SDS011;10301;50.832;4.080;2022-09-01T01:12:08;6.50;;;3.15;;
20283;SDS011;10301;50.832;4.080;2022-09-01T01:14:43;9.23;;;3.50;;
20283;SDS011;10301;50.832;4.080;2022-09-01T01:17:16;8.60;;;3.33;;
20283;SDS011;10301;50.832;4.080;2022-09-01T01:19:44;5.97;;;2.78;;
20283;SDS011;10301;50.832;4.080;2022-09-01T01:25:26;6.82;;;2.90;;
20283;SDS011;10301;50.832;4.080;2022-09-01T01:28:15;7.20;;;3.05;;
20283;SDS011;10301;50.832;4.080;2022-09-01T01:31:06;11.05;;;3.17;;
20283;SDS011;10301;50.832;4.080;2022-09-01T01:33:40;8.25;;;2.67;;
20283;SDS011;10301;50.832;4.080;2022-09-01T01:36:12;6.28;;;2.80;;
20283;SDS011;10301;50.832;4.080;2022-09-01T01:38:41;8.38;;;3.20;;
20283;SDS011;10301;50.832;4.080;2022-09-01T01:41:10;7.32;;;2.85;;
20283;SDS011;10301;50.832;4.080;2022-09-01T01:43:36;6.65;;;2.88;;
20283;SDS011;10301;50.832;4.080;2022-09-01T01:46:03;6.90;;;3.10;;
20283;SDS011;10301;50.832;4.080;2022-09-01T01:48:32;7.18;;;2.80;;
20283;SDS011;10301;50.832;4.080;2022-09-01T01:51:00;6.00;;;3.00;;
20283;SDS011;10301;50.832;4.080;2022-09-01T01:53:27;7.55;;;2.72;;
20283;SDS011;10301;50.832;4.080;2022-09-01T01:55:53;5.30;;;2.65;;
20283;SDS011;10301;50.832;4.080;2022-09-01T01:58:22;9.80;;;2.50;;
20283;SDS011;10301;50.832;4.080;2022-09-01T02:00:49;5.97;;;2.47;;
20283;SDS011;10301;50.832;4.080;2022-09-01T02:03:17;9.80;;;2.60;;
20283;SDS011;10301;50.832;4.080;2022-09-01T02:05:47;5.50;;;2.80;;
20283;SDS011;10301;50.832;4.080;2022-09-01T02:08:15;6.22;;;2.63;;
20283;SDS011;10301;50.832;4.080;2022-09-01T02:10:47;6.38;;;2.63;;
20283;SDS011;10301;50.832;4.080;2022-09-01T02:13:15;5.80;;;2.55;;
20283;SDS011;10301;50.832;4.080;2022-09-01T02:15:44;6.57;;;2.67;;
20283;SDS011;10301;50.832;4.080;2022-09-01T02:18:24;6.78;;;2.80;;
20283;SDS011;10301;50.832;4.080;2022-09-01T02:20:53;5.65;;;2.50;;
20283;SDS011;10301;50.832;4.080;2022-09-01T02:23:20;5.55;;;2.50;;
20283;SDS011;10301;50.832;4.080;2022-09-01T02:25:48;6.45;;;2.53;;
20283;SDS011;10301;50.832;4.080;2022-09-01T02:28:17;6.80;;;2.67;;
20283;SDS011;10301;50.832;4.080;2022-09-01T02:30:45;7.28;;;2.60;;
20283;SDS011;10301;50.832;4.080;2022-09-01T02:33:32;5.07;;;2.40;;
20283;SDS011;10301;50.832;4.080;2022-09-01T02:36:01;6.75;;;2.67;;
20283;SDS011;10301;50.832;4.080;2022-09-01T02:38:29;6.93;;;2.90;;
20283;SDS011;10301;50.832;4.080;2022-09-01T02:40:58;7.20;;;2.50;;
20283;SDS011;10301;50.832;4.080;2022-09-01T02:43:26;8.10;;;2.60;;
20283;SDS011;10301;50.832;4.080;2022-09-01T02:45:53;6.32;;;2.47;;
20283;SDS011;10301;50.832;4.080;2022-09-01T02:48:25;7.32;;;2.50;;
20283;SDS011;10301;50.832;4.080;2022-09-01T02:50:56;7.82;;;3.15;;
20283;SDS011;10301;50.832;4.080;2022-09-01T02:53:23;6.82;;;2.70;;
20283;SDS011;10301;50.832;4.080;2022-09-01T02:55:49;5.72;;;2.88;;
20283;SDS011;10301;50.832;4.080;2022-09-01T02:58:15;8.52;;;2.88;;
20283;SDS011;10301;50.832;4.080;2022-09-01T03:00:44;8.73;;;2.78;;
20283;SDS011;10301;50.832;4.080;2022-09-01T03:03:16;11.20;;;3.28;;
20283;SDS011;10301;50.832;4.080;2022-09-01T03:05:45;8.45;;;2.65;;
20283;SDS011;10301;50.832;4.080;2022-09-01T03:08:12;11.15;;;2.88;;
20283;SDS011;10301;50.832;4.080;2022-09-01T03:10:40;6.80;;;2.67;;
20283;SDS011;10301;50.832;4.080;2022-09-01T03:13:12;10.48;;;3.15;;
20283;SDS011;10301;50.832;4.080;2022-09-01T03:15:40;5.68;;;2.53;;
20283;SDS011;10301;50.832;4.080;2022-09-01T03:18:07;8.25;;;3.08;;
20283;SDS011;10301;50.832;4.080;2022-09-01T03:20:34;7.28;;;2.70;;
20283;SDS011;10301;50.832;4.080;2022-09-01T03:23:05;6.88;;;3.17;;
20283;SDS011;10301;50.832;4.080;2022-09-01T03:25:33;8.23;;;2.88;;
20283;SDS011;10301;50.832;4.080;2022-09-01T03:27:59;7.32;;;2.88;;
20283;SDS011;10301;50.832;4.080;2022-09-01T03:30:27;8.13;;;3.15;;
20283;SDS011;10301;50.832;4.080;2022-09-01T03:32:57;6.25;;;3.03;;
20283;SDS011;10301;50.832;4.080;2022-09-01T03:35:24;7.85;;;3.17;;
20283;SDS011;10301;50.832;4.080;2022-09-01T03:37:51;10.90;;;3.70;;
20283;SDS011;10301;50.832;4.080;2022-09-01T03:40:17;8.15;;;3.30;;
20283;SDS011;10301;50.832;4.080;2022-09-01T03:42:43;5.78;;;2.70;;
20283;SDS011;10301;50.832;4.080;2022-09-01T03:45:09;8.95;;;3.08;;
20283;SDS011;10301;50.832;4.080;2022-09-01T03:47:38;7.35;;;3.78;;
20283;SDS011;10301;50.832;4.080;2022-09-01T03:50:06;9.18;;;3.10;;
20283;SDS011;10301;50.832;4.080;2022-09-01T03:52:50;6.07;;;3.33;;
20283;SDS011;10301;50.832;4.080;2022-09-01T03:55:22;6.53;;;2.88;;
20283;SDS011;10301;50.832;4.080;2022-09-01T03:57:51;8.05;;;3.47;;
20283;SDS011;10301;50.832;4.080;2022-09-01T04:00:19;7.43;;;3.25;;
20283;SDS011;10301;50.832;4.080;2022-09-01T04:02:51;10.95;;;3.70;;
20283;SDS011;10301;50.832;4.080;2022-09-01T04:05:21;8.32;;;3.58;;
20283;SDS011;10301;50.832;4.080;2022-09-01T04:07:49;7.03;;;3.28;;
20283;SDS011;10301;50.832;4.080;2022-09-01T04:10:18;9.20;;;3.85;;
20283;SDS011;10301;50.832;4.080;2022-09-01T04:12:46;11.40;;;4.43;;
20283;SDS011;10301;50.832;4.080;2022-09-01T04:15:13;8.45;;;3.13;;
20283;SDS011;10301;50.832;4.080;2022-09-01T04:17:41;10.65;;;3.70;;
20283;SDS011;10301;50.832;4.080;2022-09-01T04:20:33;8.02;;;3.67;;
20283;SDS011;10301;50.832;4.080;2022-09-01T04:23:12;9.40;;;3.88;;
20283;SDS011;10301;50.832;4.080;2022-09-01T04:25:58;6.43;;;3.38;;
20283;SDS011;10301;50.832;4.080;2022-09-01T04:28:33;9.20;;;3.60;;
20283;SDS011;10301;50.832;4.080;2022-09-01T04:31:02;10.50;;;3.78;;
20283;SDS011;10301;50.832;4.080;2022-09-01T04:33:33;11.73;;;4.40;;
20283;SDS011;10301;50.832;4.080;2022-09-01T04:39:05;12.27;;;3.88;;
20283;SDS011;10301;50.832;4.080;2022-09-01T04:41:34;11.02;;;4.07;;
20283;SDS011;10301;50.832;4.080;2022-09-01T04:44:03;8.35;;;3.90;;
20283;SDS011;10301;50.832;4.080;2022-09-01T04:46:31;9.48;;;3.70;;
20283;SDS011;10301;50.832;4.080;2022-09-01T04:49:01;10.05;;;3.75;;
20283;SDS011;10301;50.832;4.080;2022-09-01T04:51:33;8.13;;;3.95;;
20283;SDS011;10301;50.832;4.080;2022-09-01T04:54:03;9.88;;;3.75;;
20283;SDS011;10301;50.832;4.080;2022-09-01T04:56:32;9.85;;;4.20;;
20283;SDS011;10301;50.832;4.080;2022-09-01T04:58:59;8.50;;;3.65;;
20283;SDS011;10301;50.832;4.080;2022-09-01T05:01:25;10.23;;;3.83;;
20283;SDS011;10301;50.832;4.080;2022-09-01T05:03:51;8.48;;;4.00;;
20283;SDS011;10301;50.832;4.080;2022-09-01T05:06:23;8.35;;;3.55;;
20283;SDS011;10301;50.832;4.080;2022-09-01T05:08:49;11.00;;;3.83;;
20283;SDS011;10301;50.832;4.080;2022-09-01T05:11:16;9.25;;;3.90;;
20283;SDS011;10301;50.832;4.080;2022-09-01T05:13:45;10.55;;;3.97;;
20283;SDS011;10301;50.832;4.080;2022-09-01T05:16:13;10.25;;;3.90;;
20283;SDS011;10301;50.832;4.080;2022-09-01T05:18:46;9.80;;;3.72;;
20283;SDS011;10301;50.832;4.080;2022-09-01T05:21:15;9.07;;;4.00;;
20283;SDS011;10301;50.832;4.080;2022-09-01T05:23:46;8.75;;;4.50;;
20283;SDS011;10301;50.832;4.080;2022-09-01T05:26:14;7.82;;;4.00;;
20283;SDS011;10301;50.832;4.080;2022-09-01T05:28:45;10.25;;;4.07;;
20283;SDS011;10301;50.832;4.080;2022-09-01T05:31:13;9.88;;;3.50;;
20283;SDS011;10301;50.832;4.080;2022-09-01T05:33:43;12.48;;;4.10;;
20283;SDS011;10301;50.832;4.080;2022-09-01T05:36:12;8.48;;;4.13;;
20283;SDS011;10301;50.832;4.080;2022-09-01T05:38:39;8.25;;;3.95;;
20283;SDS011;10301;50.832;4.080;2022-09-01T05:41:06;13.07;;;4.75;;
20283;SDS011;10301;50.832;4.080;2022-09-01T05:43:34;10.52;;;4.40;;
20283;SDS011;10301;50.832;4.080;2022-09-01T05:46:01;10.20;;;4.22;;
20283;SDS011;10301;50.832;4.080;2022-09-01T05:48:30;9.70;;;4.40;;
20283;SDS011;10301;50.832;4.080;2022-09-01T05:51:04;9.85;;;4.18;;
20283;SDS011;10301;50.832;4.080;2022-09-01T05:53:31;10.55;;;4.40;;
20283;SDS011;10301;50.832;4.080;2022-09-01T05:55:58;15.00;;;4.13;;
20283;SDS011;10301;50.832;4.080;2022-09-01T05:58:31;9.90;;;4.05;;
20283;SDS011;10301;50.832;4.080;2022-09-01T06:00:58;11.23;;;4.28;;
20283;SDS011;10301;50.832;4.080;2022-09-01T06:03:25;11.43;;;4.40;;
20283;SDS011;10301;50.832;4.080;2022-09-01T06:05:52;10.27;;;4.18;;
20283;SDS011;10301;50.832;4.080;2022-09-01T06:08:20;9.25;;;3.63;;
20283;SDS011;10301;50.832;4.080;2022-09-01T06:10:48;11.32;;;4.25;;
20283;SDS011;10301;50.832;4.080;2022-09-01T06:13:16;12.30;;;4.05;;
20283;SDS011;10301;50.832;4.080;2022-09-01T06:15:46;17.98;;;4.63;;
20283;SDS011;10301;50.832;4.080;2022-09-01T06:18:12;15.63;;;4.97;;
20283;SDS011;10301;50.832;4.080;2022-09-01T06:20:39;13.65;;;4.78;;
20283;SDS011;10301;50.832;4.080;2022-09-01T06:23:08;16.65;;;4.82;;
20283;SDS011;10301;50.832;4.080;2022-09-01T06:25:36;14.60;;;4.20;;
20283;SDS011;10301;50.832;4.080;2022-09-01T06:28:03;14.02;;;4.28;;
20283;SDS011;10301;50.832;4.080;2022-09-01T06:30:30;9.40;;;4.28;;
20283;SDS011;10301;50.832;4.080;2022-09-01T06:32:57;15.35;;;4.57;;
20283;SDS011;10301;50.832;4.080;2022-09-01T06:35:25;12.15;;;4.20;;
20283;SDS011;10301;50.832;4.080;2022-09-01T06:37:53;14.68;;;4.63;;
20283;SDS011;10301;50.832;4.080;2022-09-01T06:40:20;10.00;;;4.68;;
20283;SDS011;10301;50.832;4.080;2022-09-01T06:42:49;13.00;;;4.97;;
20283;SDS011;10301;50.832;4.080;2022-09-01T06:45:17;14.00;;;5.30;;
20283;SDS011;10301;50.832;4.080;2022-09-01T06:47:45;10.50;;;4.93;;
20283;SDS011;10301;50.832;4.080;2022-09-01T06:50:13;9.00;;;4.88;;
20283;SDS011;10301;50.832;4.080;2022-09-01T06:52:41;11.15;;;5.53;;
20283;SDS011;10301;50.832;4.080;2022-09-01T06:55:08;8.82;;;5.47;;
20283;SDS011;10301;50.832;4.080;2022-09-01T06:57:35;14.15;;;5.60;;
20283;SDS011;10301;50.832;4.080;2022-09-01T07:00:02;12.05;;;5.40;;
20283;SDS011;10301;50.832;4.080;2022-09-01T07:02:35;12.75;;;5.15;;
20283;SDS011;10301;50.832;4.080;2022-09-01T07:05:03;12.18;;;5.53;;
20283;SDS011;10301;50.832;4.080;2022-09-01T07:07:31;10.70;;;5.57;;
20283;SDS011;10301;50.832;4.080;2022-09-01T07:09:58;12.55;;;6.20;;
20283;SDS011;10301;50.832;4.080;2022-09-01T07:12:25;11.60;;;6.30;;
20283;SDS011;10301;50.832;4.080;2022-09-01T07:14:51;13.43;;;6.88;;
20283;SDS011;10301;50.832;4.080;2022-09-01T07:17:17;12.60;;;6.38;;
20283;SDS011;10301;50.832;4.080;2022-09-01T07:19:44;11.57;;;6.20;;
20283;SDS011;10301;50.832;4.080;2022-09-01T07:22:11;13.20;;;5.72;;
20283;SDS011;10301;50.832;4.080;2022-09-01T07:24:37;14.77;;;6.65;;
20283;SDS011;10301;50.832;4.080;2022-09-01T07:27:04;12.38;;;6.70;;
20283;SDS011;10301;50.832;4.080;2022-09-01T07:29:29;17.17;;;7.10;;
20283;SDS011;10301;50.832;4.080;2022-09-01T07:31:57;13.30;;;6.60;;
20283;SDS011;10301;50.832;4.080;2022-09-01T07:34:23;11.77;;;6.68;;
20283;SDS011;10301;50.832;4.080;2022-09-01T07:36:50;13.48;;;6.53;;
20283;SDS011;10301;50.832;4.080;2022-09-01T07:39:21;14.57;;;6.90;;
20283;SDS011;10301;50.832;4.080;2022-09-01T07:41:46;11.05;;;6.63;;
20283;SDS011;10301;50.832;4.080;2022-09-01T07:44:12;12.13;;;7.80;;
20283;SDS011;10301;50.832;4.080;2022-09-01T07:46:39;13.75;;;6.75;;
20283;SDS011;10301;50.832;4.080;2022-09-01T07:49:05;17.08;;;7.13;;
20283;SDS011;10301;50.832;4.080;2022-09-01T07:51:32;11.82;;;6.72;;
20283;SDS011;10301;50.832;4.080;2022-09-01T07:53:58;13.57;;;6.95;;
20283;SDS011;10301;50.832;4.080;2022-09-01T07:56:26;14.27;;;6.53;;
20283;SDS011;10301;50.832;4.080;2022-09-01T07:58:54;10.15;;;6.60;;
20283;SDS011;10301;50.832;4.080;2022-09-01T08:01:21;17.98;;;7.00;;
20283;SDS011;10301;50.832;4.080;2022-09-01T08:03:50;13.68;;;6.57;;
20283;SDS011;10301;50.832;4.080;2022-09-01T08:06:19;13.38;;;6.88;;
20283;SDS011;10301;50.832;4.080;2022-09-01T08:08:47;13.85;;;6.72;;
20283;SDS011;10301;50.832;4.080;2022-09-01T08:11:15;10.90;;;6.45;;
20283;SDS011;10301;50.832;4.080;2022-09-01T08:13:48;14.02;;;6.53;;
20283;SDS011;10301;50.832;4.080;2022-09-01T08:16:14;16.95;;;7.28;;
20283;SDS011;10301;50.832;4.080;2022-09-01T08:18:40;11.93;;;6.22;;
20283;SDS011;10301;50.832;4.080;2022-09-01T08:21:07;11.35;;;5.97;;
20283;SDS011;10301;50.832;4.080;2022-09-01T08:23:35;14.50;;;6.22;;
20283;SDS011;10301;50.832;4.080;2022-09-01T08:26:09;10.27;;;6.07;;
20283;SDS011;10301;50.832;4.080;2022-09-01T08:28:36;13.70;;;6.20;;
20283;SDS011;10301;50.832;4.080;2022-09-01T08:31:07;11.68;;;6.07;;
20283;SDS011;10301;50.832;4.080;2022-09-01T08:33:34;11.82;;;6.45;;
20283;SDS011;10301;50.832;4.080;2022-09-01T08:36:08;14.95;;;5.95;;
20283;SDS011;10301;50.832;4.080;2022-09-01T08:38:35;16.50;;;5.95;;
20283;SDS011;10301;50.832;4.080;2022-09-01T08:41:01;11.90;;;6.30;;
20283;SDS011;10301;50.832;4.080;2022-09-01T08:46:19;10.32;;;5.35;;
20283;SDS011;10301;50.832;4.080;2022-09-01T08:48:55;15.55;;;5.57;;
20283;SDS011;10301;50.832;4.080;2022-09-01T08:57:00;11.48;;;6.22;;
20283;SDS011;10301;50.832;4.080;2022-09-01T08:59:29;16.23;;;6.43;;
20283;SDS011;10301;50.832;4.080;2022-09-01T09:02:10;15.90;;;6.53;;
20283;SDS011;10301;50.832;4.080;2022-09-01T09:05:01;11.13;;;5.45;;
20283;SDS011;10301;50.832;4.080;2022-09-01T09:10:31;12.18;;;5.53;;
20283;SDS011;10301;50.832;4.080;2022-09-01T09:16:23;8.25;;;5.10;;
20283;SDS011;10301;50.832;4.080;2022-09-01T09:21:39;11.85;;;5.22;;
20283;SDS011;10301;50.832;4.080;2022-09-01T09:26:52;8.85;;;4.75;;
20283;SDS011;10301;50.832;4.080;2022-09-01T09:29:26;11.27;;;4.75;;
20283;SDS011;10301;50.832;4.080;2022-09-01T09:32:02;7.50;;;4.75;;
20283;SDS011;10301;50.832;4.080;2022-09-01T09:34:34;10.07;;;5.00;;
20283;SDS011;10301;50.832;4.080;2022-09-01T09:37:21;7.53;;;4.22;;
20283;SDS011;10301;50.832;4.080;2022-09-01T09:40:02;10.30;;;6.63;;
20283;SDS011;10301;50.832;4.080;2022-09-01T09:42:41;7.35;;;3.92;;
20283;SDS011;10301;50.832;4.080;2022-09-01T09:45:23;7.65;;;4.38;;
20283;SDS011;10301;50.832;4.080;2022-09-01T09:47:52;12.45;;;4.20;;
20283;SDS011;10301;50.832;4.080;2022-09-01T09:53:08;12.57;;;4.20;;
20283;SDS011;10301;50.832;4.080;2022-09-01T09:58:42;9.57;;;5.30;;
20283;SDS011;10301;50.832;4.080;2022-09-01T10:03:49;8.55;;;3.40;;
20283;SDS011;10301;50.832;4.080;2022-09-01T10:09:03;7.22;;;2.83;;
20283;SDS011;10301;50.832;4.080;2022-09-01T10:11:38;18.67;;;4.50;;
20283;SDS011;10301;50.832;4.080;2022-09-01T10:14:08;7.10;;;3.13;;
20283;SDS011;10301;50.832;4.080;2022-09-01T10:16:40;12.88;;;3.85;;
20283;SDS011;10301;50.832;4.080;2022-09-01T10:19:10;8.55;;;2.90;;
20283;SDS011;10301;50.832;4.080;2022-09-01T10:21:39;8.60;;;2.83;;
20283;SDS011;10301;50.832;4.080;2022-09-01T10:24:14;7.05;;;3.03;;
20283;SDS011;10301;50.832;4.080;2022-09-01T10:26:53;7.55;;;2.60;;
20283;SDS011;10301;50.832;4.080;2022-09-01T10:29:27;6.47;;;2.78;;
20283;SDS011;10301;50.832;4.080;2022-09-01T10:31:57;6.32;;;2.85;;
20283;SDS011;10301;50.832;4.080;2022-09-01T10:34:24;8.35;;;3.13;;
20283;SDS011;10301;50.832;4.080;2022-09-01T10:36:57;7.18;;;2.95;;
20283;SDS011;10301;50.832;4.080;2022-09-01T10:39:24;5.07;;;2.22;;
20283;SDS011;10301;50.832;4.080;2022-09-01T10:41:50;4.72;;;2.13;;
20283;SDS011;10301;50.832;4.080;2022-09-01T10:44:26;6.68;;;2.90;;
20283;SDS011;10301;50.832;4.080;2022-09-01T10:47:10;5.35;;;2.50;;
20283;SDS011;10301;50.832;4.080;2022-09-01T10:55:20;5.68;;;2.17;;
20283;SDS011;10301;50.832;4.080;2022-09-01T11:11:06;4.90;;;2.20;;
20283;SDS011;10301;50.832;4.080;2022-09-01T11:13:53;4.20;;;1.95;;
20283;SDS011;10301;50.832;4.080;2022-09-01T11:18:55;5.28;;;1.98;;
20283;SDS011;10301;50.832;4.080;2022-09-01T11:21:40;11.50;;;2.30;;
20283;SDS011;10301;50.832;4.080;2022-09-01T11:27:07;5.50;;;2.17;;
20283;SDS011;10301;50.832;4.080;2022-09-01T11:29:51;5.72;;;1.98;;
20283;SDS011;10301;50.832;4.080;2022-09-01T11:32:24;3.63;;;1.88;;
20283;SDS011;10301;50.832;4.080;2022-09-01T11:34:56;6.07;;;2.40;;
20283;SDS011;10301;50.832;4.080;2022-09-01T11:37:24;5.15;;;2.08;;
20283;SDS011;10301;50.832;4.080;2022-09-01T11:39:51;3.65;;;1.90;;
20283;SDS011;10301;50.832;4.080;2022-09-01T11:42:22;4.40;;;2.13;;
20283;SDS011;10301;50.832;4.080;2022-09-01T11:44:54;7.95;;;2.22;;
20283;SDS011;10301;50.832;4.080;2022-09-01T11:47:26;5.07;;;2.00;;
20283;SDS011;10301;50.832;4.080;2022-09-01T11:50:04;5.45;;;2.20;;
20283;SDS011;10301;50.832;4.080;2022-09-01T11:52:42;19.40;;;4.28;;
20283;SDS011;10301;50.832;4.080;2022-09-01T11:55:28;5.50;;;1.90;;
20283;SDS011;10301;50.832;4.080;2022-09-01T11:57:59;13.25;;;2.97;;
20283;SDS011;10301;50.832;4.080;2022-09-01T12:00:34;11.60;;;3.00;;
20283;SDS011;10301;50.832;4.080;2022-09-01T12:03:02;3.90;;;1.90;;
20283;SDS011;10301;50.832;4.080;2022-09-01T12:05:58;6.38;;;2.30;;
20283;SDS011;10301;50.832;4.080;2022-09-01T12:08:29;5.55;;;2.40;;
20283;SDS011;10301;50.832;4.080;2022-09-01T12:13:33;4.35;;;2.25;;
20283;SDS011;10301;50.832;4.080;2022-09-01T12:16:04;4.43;;;2.10;;
20283;SDS011;10301;50.832;4.080;2022-09-01T12:18:33;6.30;;;2.22;;
20283;SDS011;10301;50.832;4.080;2022-09-01T12:21:15;19.95;;;3.25;;
20283;SDS011;10301;50.832;4.080;2022-09-01T12:23:47;4.50;;;2.00;;
20283;SDS011;10301;50.832;4.080;2022-09-01T12:26:14;4.07;;;1.60;;
20283;SDS011;10301;50.832;4.080;2022-09-01T12:28:42;6.50;;;2.30;;
20283;SDS011;10301;50.832;4.080;2022-09-01T12:31:13;9.38;;;2.58;;
20283;SDS011;10301;50.832;4.080;2022-09-01T12:33:41;3.58;;;1.90;;
20283;SDS011;10301;50.832;4.080;2022-09-01T12:38:40;4.75;;;2.20;;
20283;SDS011;10301;50.832;4.080;2022-09-01T12:41:22;6.03;;;2.10;;
20283;SDS011;10301;50.832;4.080;2022-09-01T12:47:05;4.40;;;2.13;;
20283;SDS011;10301;50.832;4.080;2022-09-01T12:49:46;7.90;;;2.47;;
20283;SDS011;10301;50.832;4.080;2022-09-01T12:54:50;10.07;;;2.88;;
20283;SDS011;10301;50.832;4.080;2022-09-01T12:57:29;10.30;;;2.55;;
20283;SDS011;10301;50.832;4.080;2022-09-01T13:00:33;10.90;;;2.80;;
20283;SDS011;10301;50.832;4.080;2022-09-01T13:03:06;6.20;;;2.45;;
20283;SDS011;10301;50.832;4.080;2022-09-01T13:05:42;4.72;;;2.20;;
20283;SDS011;10301;50.832;4.080;2022-09-01T13:10:36;9.07;;;2.67;;
20283;SDS011;10301;50.832;4.080;2022-09-01T13:13:07;5.75;;;1.90;;
20283;SDS011;10301;50.832;4.080;2022-09-01T13:15:34;6.05;;;2.40;;
20283;SDS011;10301;50.832;4.080;2022-09-01T13:18:01;5.35;;;2.15;;
20283;SDS011;10301;50.832;4.080;2022-09-01T13:20:27;8.52;;;2.20;;
20283;SDS011;10301;50.832;4.080;2022-09-01T13:22:52;6.43;;;2.17;;
20283;SDS011;10301;50.832;4.080;2022-09-01T13:25:19;4.75;;;2.25;;
20283;SDS011;10301;50.832;4.080;2022-09-01T13:27:45;4.32;;;2.20;;
20283;SDS011;10301;50.832;4.080;2022-09-01T13:30:16;4.78;;;2.60;;
20283;SDS011;10301;50.832;4.080;2022-09-01T13:32:46;8.10;;;2.67;;
20283;SDS011;10301;50.832;4.080;2022-09-01T13:35:13;5.63;;;2.03;;
20283;SDS011;10301;50.832;4.080;2022-09-01T13:37:41;6.32;;;2.40;;
20283;SDS011;10301;50.832;4.080;2022-09-01T13:40:07;3.63;;;2.05;;
20283;SDS011;10301;50.832;4.080;2022-09-01T13:42:39;5.32;;;1.85;;
20283;SDS011;10301;50.832;4.080;2022-09-01T13:45:10;5.05;;;2.10;;
20283;SDS011;10301;50.832;4.080;2022-09-01T13:47:40;6.03;;;1.92;;
20283;SDS011;10301;50.832;4.080;2022-09-01T13:50:06;5.00;;;2.50;;
20283;SDS011;10301;50.832;4.080;2022-09-01T13:52:34;5.40;;;2.10;;
20283;SDS011;10301;50.832;4.080;2022-09-01T13:55:01;4.70;;;2.35;;
20283;SDS011;10301;50.832;4.080;2022-09-01T13:57:26;5.53;;;2.00;;
20283;SDS011;10301;50.832;4.080;2022-09-01T13:59:52;4.93;;;1.80;;
20283;SDS011;10301;50.832;4.080;2022-09-01T14:02:19;5.80;;;2.13;;
20283;SDS011;10301;50.832;4.080;2022-09-01T14:04:44;8.00;;;2.45;;
20283;SDS011;10301;50.832;4.080;2022-09-01T14:07:10;6.72;;;2.28;;
20283;SDS011;10301;50.832;4.080;2022-09-01T14:09:36;6.65;;;2.28;;
20283;SDS011;10301;50.832;4.080;2022-09-01T14:12:02;8.63;;;2.20;;
20283;SDS011;10301;50.832;4.080;2022-09-01T14:14:29;4.43;;;1.70;;
20283;SDS011;10301;50.832;4.080;2022-09-01T14:16:56;3.95;;;1.90;;
20283;SDS011;10301;50.832;4.080;2022-09-01T14:19:22;6.20;;;1.90;;
20283;SDS011;10301;50.832;4.080;2022-09-01T14:21:48;8.20;;;2.20;;
20283;SDS011;10301;50.832;4.080;2022-09-01T14:24:14;6.82;;;2.10;;
20283;SDS011;10301;50.832;4.080;2022-09-01T14:26:43;7.68;;;2.30;;
20283;SDS011;10301;50.832;4.080;2022-09-01T14:29:10;4.20;;;2.10;;
20283;SDS011;10301;50.832;4.080;2022-09-01T14:31:35;5.15;;;1.83;;
20283;SDS011;10301;50.832;4.080;2022-09-01T14:34:01;4.00;;;1.95;;
20283;SDS011;10301;50.832;4.080;2022-09-01T14:36:28;7.40;;;2.00;;
20283;SDS011;10301;50.832;4.080;2022-09-01T14:38:53;5.05;;;2.30;;
20283;SDS011;10301;50.832;4.080;2022-09-01T14:41:20;6.38;;;2.47;;
20283;SDS011;10301;50.832;4.080;2022-09-01T14:43:49;4.70;;;1.83;;
20283;SDS011;10301;50.832;4.080;2022-09-01T14:46:16;6.22;;;2.38;;
20283;SDS011;10301;50.832;4.080;2022-09-01T14:48:43;7.63;;;2.17;;
20283;SDS011;10301;50.832;4.080;2022-09-01T14:51:16;4.35;;;2.28;;
20283;SDS011;10301;50.832;4.080;2022-09-01T14:53:47;4.50;;;2.25;;
20283;SDS011;10301;50.832;4.080;2022-09-01T14:56:13;6.55;;;2.42;;
20283;SDS011;10301;50.832;4.080;2022-09-01T14:58:42;5.78;;;2.35;;
20283;SDS011;10301;50.832;4.080;2022-09-01T15:01:12;5.43;;;2.00;;
20283;SDS011;10301;50.832;4.080;2022-09-01T15:03:39;5.07;;;1.88;;
20283;SDS011;10301;50.832;4.080;2022-09-01T15:06:06;4.50;;;2.22;;
20283;SDS011;10301;50.832;4.080;2022-09-01T15:08:32;6.75;;;2.40;;
20283;SDS011;10301;50.832;4.080;2022-09-01T15:10:57;8.85;;;2.80;;
20283;SDS011;10301;50.832;4.080;2022-09-01T15:13:25;6.45;;;2.30;;
20283;SDS011;10301;50.832;4.080;2022-09-01T15:15:51;6.45;;;2.45;;
20283;SDS011;10301;50.832;4.080;2022-09-01T15:18:17;5.00;;;2.20;;
20283;SDS011;10301;50.832;4.080;2022-09-01T15:20:43;5.05;;;2.20;;
20283;SDS011;10301;50.832;4.080;2022-09-01T15:23:16;6.35;;;2.25;;
20283;SDS011;10301;50.832;4.080;2022-09-01T15:25:44;6.00;;;2.08;;
20283;SDS011;10301;50.832;4.080;2022-09-01T15:28:10;5.38;;;2.20;;
20283;SDS011;10301;50.832;4.080;2022-09-01T15:30:37;5.80;;;1.90;;
20283;SDS011;10301;50.832;4.080;2022-09-01T15:33:04;6.38;;;2.22;;
20283;SDS011;10301;50.832;4.080;2022-09-01T15:35:30;5.60;;;1.88;;
20283;SDS011;10301;50.832;4.080;2022-09-01T15:37:56;5.15;;;2.05;;
20283;SDS011;10301;50.832;4.080;2022-09-01T15:40:22;5.18;;;2.20;;
20283;SDS011;10301;50.832;4.080;2022-09-01T15:42:49;4.72;;;2.00;;
20283;SDS011;10301;50.832;4.080;2022-09-01T15:45:18;5.05;;;1.80;;
20283;SDS011;10301;50.832;4.080;2022-09-01T15:47:46;4.00;;;1.98;;
20283;SDS011;10301;50.832;4.080;2022-09-01T15:50:16;4.63;;;2.05;;
20283;SDS011;10301;50.832;4.080;2022-09-01T15:52:50;3.28;;;1.90;;
20283;SDS011;10301;50.832;4.080;2022-09-01T15:55:21;4.15;;;1.85;;
20283;SDS011;10301;50.832;4.080;2022-09-01T15:57:49;6.20;;;1.90;;
20283;SDS011;10301;50.832;4.080;2022-09-01T16:00:19;4.82;;;1.80;;
20283;SDS011;10301;50.832;4.080;2022-09-01T16:02:46;4.90;;;1.70;;
20283;SDS011;10301;50.832;4.080;2022-09-01T16:05:11;6.65;;;2.05;;
20283;SDS011;10301;50.832;4.080;2022-09-01T16:07:38;5.43;;;1.83;;
20283;SDS011;10301;50.832;4.080;2022-09-01T16:10:04;7.25;;;2.03;;
20283;SDS011;10301;50.832;4.080;2022-09-01T16:12:35;7.47;;;2.00;;